createdAt,value
2023-01-11T00:00:46.123Z,1010.71
2023-01-11T00:01:46.117Z,1010.72
2023-01-11T00:02:46.108Z,1010.74
2023-01-11T00:03:46.090Z,1010.78
2023-01-11T00:04:46.148Z,1010.73
2023-01-11T00:05:46.070Z,1010.82
2023-01-11T00:06:46.063Z,1010.83
2023-01-11T00:07:46.048Z,1010.78
2023-01-11T00:08:46.046Z,1010.78
2023-01-11T00:09:46.039Z,1010.76
2023-01-11T00:10:46.016Z,1010.78
2023-01-11T00:11:45.996Z,1010.79
2023-01-11T00:12:45.997Z,1010.75
2023-01-11T00:13:46.153Z,1010.72
2023-01-11T00:14:45.980Z,1010.75
2023-01-11T00:15:45.997Z,1010.70
2023-01-11T00:16:45.941Z,1010.67
2023-01-11T00:17:45.929Z,1010.70
2023-01-11T00:18:45.927Z,1010.67
2023-01-11T00:19:45.918Z,1010.70
2023-01-11T00:20:45.904Z,1010.69
2023-01-11T00:21:45.884Z,1010.62
2023-01-11T00:22:45.877Z,1010.60
2023-01-11T00:23:45.862Z,1010.53
2023-01-11T00:24:45.901Z,1010.52
2023-01-11T00:25:45.839Z,1010.56
2023-01-11T00:26:45.826Z,1010.49
2023-01-11T00:27:45.828Z,1010.45
2023-01-11T00:28:46.309Z,1010.47
2023-01-11T00:29:45.837Z,1010.44
2023-01-11T00:30:45.791Z,1010.41
2023-01-11T00:31:45.769Z,1010.39
2023-01-11T00:32:45.774Z,1010.33
2023-01-11T00:33:45.751Z,1010.29
2023-01-11T00:34:45.737Z,1010.32
2023-01-11T00:35:45.722Z,1010.34
2023-01-11T00:36:45.714Z,1010.32
2023-01-11T00:37:45.700Z,1010.32
2023-01-11T00:38:45.695Z,1010.36
2023-01-11T00:39:45.675Z,1010.38
2023-01-11T00:40:45.666Z,1010.36
2023-01-11T00:41:45.651Z,1010.33
2023-01-11T00:42:45.649Z,1010.31
2023-01-11T00:43:45.632Z,1010.30
2023-01-11T00:44:45.622Z,1010.28
2023-01-11T00:45:45.645Z,1010.22
2023-01-11T00:46:45.598Z,1010.27
2023-01-11T00:47:45.593Z,1010.25
2023-01-11T00:48:45.579Z,1010.29
2023-01-11T00:49:45.569Z,1010.28
2023-01-11T00:50:45.555Z,1010.23
2023-01-11T00:51:45.541Z,1010.24
2023-01-11T00:52:45.530Z,1010.26
2023-01-11T00:53:45.544Z,1010.22
2023-01-11T00:54:45.514Z,1010.20
2023-01-11T00:55:45.494Z,1010.23
2023-01-11T00:56:45.486Z,1010.29
2023-01-11T00:57:45.478Z,1010.20
2023-01-11T00:58:45.459Z,1010.22
2023-01-11T00:59:45.446Z,1010.15
2023-01-11T01:00:45.436Z,1010.16
2023-01-11T01:01:45.453Z,1010.13
2023-01-11T01:02:45.492Z,1010.09
2023-01-11T01:03:45.401Z,1010.05
2023-01-11T01:04:45.391Z,1010.09
2023-01-11T01:05:45.379Z,1010.06
2023-01-11T01:06:45.438Z,1010.02
2023-01-11T01:07:45.389Z,1009.96
2023-01-11T01:08:45.356Z,1009.96
2023-01-11T01:09:45.332Z,1009.91
2023-01-11T01:10:45.331Z,1009.90
2023-01-11T01:11:45.309Z,1009.98
2023-01-11T01:12:45.326Z,1009.91
2023-01-11T01:13:45.284Z,1009.95
2023-01-11T01:14:45.275Z,1009.90
2023-01-11T01:15:45.351Z,1009.91
2023-01-11T01:16:45.252Z,1009.94
2023-01-11T01:17:45.237Z,1009.87
2023-01-11T01:18:45.232Z,1009.93
2023-01-11T01:19:45.228Z,1009.94
2023-01-11T01:20:45.205Z,1009.97
2023-01-11T01:21:45.195Z,1009.94
2023-01-11T01:22:45.183Z,1010.01
2023-01-11T01:23:45.215Z,1010.01
2023-01-11T01:24:45.163Z,1009.99
2023-01-11T01:25:45.145Z,1009.93
2023-01-11T01:26:45.139Z,1010.00
2023-01-11T01:27:45.132Z,1009.94
2023-01-11T01:28:45.110Z,1009.92
2023-01-11T01:29:45.102Z,1009.91
2023-01-11T01:30:45.096Z,1009.90
2023-01-11T01:31:45.079Z,1009.89
2023-01-11T01:32:45.069Z,1009.87
2023-01-11T01:33:45.057Z,1009.90
2023-01-11T01:34:45.047Z,1009.90
2023-01-11T01:35:45.032Z,1009.84
2023-01-11T01:36:45.021Z,1009.83
2023-01-11T01:37:45.017Z,1009.89
2023-01-11T01:38:44.998Z,1009.84
2023-01-11T01:39:44.986Z,1009.86
2023-01-11T01:40:44.975Z,1009.86
2023-01-11T01:41:44.962Z,1009.84
2023-01-11T01:42:44.960Z,1009.86
2023-01-11T01:43:47.422Z,1009.78
2023-01-11T01:44:44.936Z,1009.80
2023-01-11T01:45:44.915Z,1009.74
2023-01-11T01:46:44.931Z,1009.77
2023-01-11T01:47:44.916Z,1009.74
2023-01-11T01:48:44.885Z,1009.72
2023-01-11T01:49:44.875Z,1009.68
2023-01-11T01:50:44.866Z,1009.64
2023-01-11T01:51:44.864Z,1009.65
2023-01-11T01:52:44.836Z,1009.60
2023-01-11T01:53:44.831Z,1009.59
2023-01-11T01:54:44.812Z,1009.61
2023-01-11T01:55:44.804Z,1009.53
2023-01-11T01:56:44.821Z,1009.54
2023-01-11T01:57:44.783Z,1009.53
2023-01-11T01:58:44.773Z,1009.56
2023-01-11T01:59:44.756Z,1009.53
2023-01-11T02:00:44.748Z,1009.50
2023-01-11T02:01:44.753Z,1009.55
2023-01-11T02:02:44.751Z,1009.52
2023-01-11T02:03:44.709Z,1009.53
2023-01-11T02:04:44.702Z,1009.45
2023-01-11T02:05:44.686Z,1009.37
2023-01-11T02:06:44.716Z,1009.36
2023-01-11T02:07:44.664Z,1009.34
2023-01-11T02:08:44.652Z,1009.23
2023-01-11T02:09:44.641Z,1009.35
2023-01-11T02:10:44.635Z,1009.30
2023-01-11T02:11:44.618Z,1009.32
2023-01-11T02:12:44.608Z,1009.30
2023-01-11T02:13:44.593Z,1009.24
2023-01-11T02:14:44.584Z,1009.22
2023-01-11T02:15:44.629Z,1009.23
2023-01-11T02:16:44.567Z,1009.23
2023-01-11T02:17:44.552Z,1009.17
2023-01-11T02:18:44.548Z,1009.06
2023-01-11T02:19:44.526Z,1009.05
2023-01-11T02:20:44.514Z,1009.06
2023-01-11T02:21:44.506Z,1009.03
2023-01-11T02:22:44.491Z,1009.07
2023-01-11T02:23:44.477Z,1009.02
2023-01-11T02:24:44.466Z,1009.05
2023-01-11T02:25:44.457Z,1008.99
2023-01-11T02:26:44.446Z,1008.91
2023-01-11T02:27:44.436Z,1008.91
2023-01-11T02:28:44.423Z,1008.81
2023-01-11T02:29:44.415Z,1008.83
2023-01-11T02:30:44.403Z,1008.82
2023-01-11T02:31:44.386Z,1008.84
2023-01-11T02:32:44.383Z,1008.82
2023-01-11T02:33:44.365Z,1008.79
2023-01-11T02:34:44.363Z,1008.79
2023-01-11T02:35:44.344Z,1008.76
2023-01-11T02:36:44.350Z,1008.72
2023-01-11T02:37:44.327Z,1008.75
2023-01-11T02:38:44.308Z,1008.74
2023-01-11T02:39:44.296Z,1008.74
2023-01-11T02:40:44.283Z,1008.72
2023-01-11T02:41:44.272Z,1008.69
2023-01-11T02:42:44.278Z,1008.71
2023-01-11T02:43:44.248Z,1008.70
2023-01-11T02:44:44.238Z,1008.69
2023-01-11T02:45:44.229Z,1008.62
2023-01-11T02:46:44.258Z,1008.65
2023-01-11T02:47:44.207Z,1008.68
2023-01-11T02:48:44.193Z,1008.66
2023-01-11T02:49:44.195Z,1008.67
2023-01-11T02:50:44.177Z,1008.61
2023-01-11T02:51:44.159Z,1008.60
2023-01-11T02:52:44.147Z,1008.63
2023-01-11T02:53:44.136Z,1008.62
2023-01-11T02:54:44.124Z,1008.56
2023-01-11T02:55:44.125Z,1008.59
2023-01-11T02:56:44.106Z,1008.62
2023-01-11T02:57:44.091Z,1008.56
2023-01-11T02:58:44.105Z,1008.55
2023-01-11T02:59:44.074Z,1008.61
2023-01-11T03:00:44.057Z,1008.59
2023-01-11T03:01:44.093Z,1008.61
2023-01-11T03:02:44.046Z,1008.54
2023-01-11T03:03:44.022Z,1008.55
2023-01-11T03:04:44.013Z,1008.53
2023-01-11T03:05:44.000Z,1008.46
2023-01-11T03:06:44.064Z,1008.42
2023-01-11T03:07:43.983Z,1008.46
2023-01-11T03:08:43.965Z,1008.35
2023-01-11T03:09:43.954Z,1008.41
2023-01-11T03:10:43.943Z,1008.40
2023-01-11T03:11:43.938Z,1008.36
2023-01-11T03:12:43.918Z,1008.30
2023-01-11T03:13:43.907Z,1008.25
2023-01-11T03:14:43.895Z,1008.27
2023-01-11T03:15:44.008Z,1008.21
2023-01-11T03:16:43.873Z,1008.23
2023-01-11T03:17:43.864Z,1008.22
2023-01-11T03:18:43.862Z,1008.25
2023-01-11T03:19:43.879Z,1008.25
2023-01-11T03:20:43.827Z,1008.25
2023-01-11T03:21:43.815Z,1008.26
2023-01-11T03:22:43.808Z,1008.20
2023-01-11T03:23:43.791Z,1008.21
2023-01-11T03:24:43.828Z,1008.18
2023-01-11T03:25:43.775Z,1008.17
2023-01-11T03:26:43.759Z,1008.12
2023-01-11T03:27:43.749Z,1008.17
2023-01-11T03:28:43.738Z,1008.03
2023-01-11T03:29:43.727Z,1008.12
2023-01-11T03:30:43.719Z,1008.12
2023-01-11T03:31:43.717Z,1008.11
2023-01-11T03:32:43.691Z,1008.12
2023-01-11T03:33:43.683Z,1008.07
2023-01-11T03:34:43.698Z,1008.07
2023-01-11T03:35:43.661Z,1008.02
2023-01-11T03:36:43.655Z,1007.96
2023-01-11T03:37:43.637Z,1008.03
2023-01-11T03:38:43.624Z,1008.02
2023-01-11T03:39:43.620Z,1007.98
2023-01-11T03:40:43.600Z,1007.98
2023-01-11T03:41:43.592Z,1008.02
2023-01-11T03:42:43.580Z,1008.03
2023-01-11T03:43:43.569Z,1008.01
2023-01-11T03:44:43.621Z,1007.97
2023-01-11T03:45:43.544Z,1007.93
2023-01-11T03:46:43.581Z,1007.92
2023-01-11T03:47:43.538Z,1007.95
2023-01-11T03:48:43.520Z,1007.96
2023-01-11T03:49:43.508Z,1007.96
2023-01-11T03:50:43.490Z,1007.90
2023-01-11T03:51:43.477Z,1007.87
2023-01-11T03:52:43.470Z,1007.88
2023-01-11T03:53:43.459Z,1007.89
2023-01-11T03:54:43.491Z,1007.94
2023-01-11T03:55:43.440Z,1007.95
2023-01-11T03:56:43.420Z,1007.97
2023-01-11T03:57:43.413Z,1007.93
2023-01-11T03:58:43.402Z,1007.91
2023-01-11T03:59:43.389Z,1007.98
2023-01-11T04:00:43.414Z,1007.92
2023-01-11T04:01:43.367Z,1007.93
2023-01-11T04:02:43.353Z,1007.85
2023-01-11T04:03:43.342Z,1007.81
2023-01-11T04:04:43.364Z,1007.81
2023-01-11T04:05:43.321Z,1007.81
2023-01-11T04:06:43.330Z,1007.82
2023-01-11T04:07:43.298Z,1007.87
2023-01-11T04:08:43.286Z,1007.80
2023-01-11T04:09:43.275Z,1007.77
2023-01-11T04:10:43.275Z,1007.80
2023-01-11T04:11:43.255Z,1007.76
2023-01-11T04:12:43.241Z,1007.78
2023-01-11T04:13:43.233Z,1007.74
2023-01-11T04:14:43.277Z,1007.72
2023-01-11T04:15:43.216Z,1007.77
2023-01-11T04:16:43.245Z,1007.74
2023-01-11T04:17:43.214Z,1007.74
2023-01-11T04:18:43.189Z,1007.73
2023-01-11T04:19:43.163Z,1007.71
2023-01-11T04:20:43.152Z,1007.66
2023-01-11T04:21:43.142Z,1007.66
2023-01-11T04:22:43.135Z,1007.65
2023-01-11T04:23:43.119Z,1007.67
2023-01-11T04:24:43.102Z,1007.64
2023-01-11T04:25:43.098Z,1007.61
2023-01-11T04:26:43.095Z,1007.55
2023-01-11T04:27:43.073Z,1007.55
2023-01-11T04:28:43.063Z,1007.55
2023-01-11T04:29:43.050Z,1007.51
2023-01-11T04:30:43.047Z,1007.51
2023-01-11T04:31:43.122Z,1007.53
2023-01-11T04:32:43.016Z,1007.55
2023-01-11T04:33:43.008Z,1007.46
2023-01-11T04:34:43.001Z,1007.45
2023-01-11T04:35:42.983Z,1007.51
2023-01-11T04:36:42.980Z,1007.46
2023-01-11T04:37:42.980Z,1007.50
2023-01-11T04:38:42.952Z,1007.48
2023-01-11T04:39:42.946Z,1007.46
2023-01-11T04:40:42.927Z,1007.43
2023-01-11T04:41:42.916Z,1007.44
2023-01-11T04:42:42.910Z,1007.43
2023-01-11T04:43:42.893Z,1007.41
2023-01-11T04:44:42.887Z,1007.44
2023-01-11T04:45:42.896Z,1007.44
2023-01-11T04:46:42.856Z,1007.41
2023-01-11T04:47:42.849Z,1007.36
2023-01-11T04:48:42.842Z,1007.37
2023-01-11T04:49:42.832Z,1007.36
2023-01-11T04:50:42.848Z,1007.36
2023-01-11T04:51:42.805Z,1007.35
2023-01-11T04:52:42.794Z,1007.33
2023-01-11T04:53:42.783Z,1007.40
2023-01-11T04:54:42.779Z,1007.39
2023-01-11T04:55:42.763Z,1007.28
2023-01-11T04:56:42.833Z,1007.25
2023-01-11T04:57:42.739Z,1007.30
2023-01-11T04:58:42.732Z,1007.31
2023-01-11T04:59:42.717Z,1007.33
2023-01-11T05:00:42.770Z,1007.28
2023-01-11T05:01:42.699Z,1007.23
2023-01-11T05:02:42.699Z,1007.23
2023-01-11T05:03:42.780Z,1007.23
2023-01-11T05:04:42.664Z,1007.21
2023-01-11T05:05:42.651Z,1007.21
2023-01-11T05:06:42.653Z,1007.16
2023-01-11T05:07:42.658Z,1007.19
2023-01-11T05:08:42.618Z,1007.15
2023-01-11T05:09:42.606Z,1007.15
2023-01-11T05:10:42.597Z,1007.15
2023-01-11T05:11:42.584Z,1007.15
2023-01-11T05:12:42.579Z,1007.14
2023-01-11T05:13:42.560Z,1007.11
2023-01-11T05:14:42.554Z,1007.07
2023-01-11T05:15:42.544Z,1007.08
2023-01-11T05:16:42.617Z,1007.07
2023-01-11T05:17:42.519Z,1007.12
2023-01-11T05:18:42.512Z,1007.10
2023-01-11T05:19:42.505Z,1007.05
2023-01-11T05:20:42.487Z,1007.03
2023-01-11T05:21:42.472Z,1006.98
2023-01-11T05:22:42.466Z,1006.94
2023-01-11T05:23:42.461Z,1006.90
2023-01-11T05:24:42.441Z,1006.91
2023-01-11T05:25:42.432Z,1006.86
2023-01-11T05:26:42.427Z,1006.89
2023-01-11T05:27:42.408Z,1006.83
2023-01-11T05:28:42.401Z,1006.87
2023-01-11T05:29:42.387Z,1006.88
2023-01-11T05:30:42.380Z,1006.89
2023-01-11T05:31:42.390Z,1006.87
2023-01-11T05:32:42.354Z,1006.91
2023-01-11T05:33:42.373Z,1006.91
2023-01-11T05:34:42.335Z,1006.89
2023-01-11T05:35:42.326Z,1006.84
2023-01-11T05:36:42.323Z,1006.80
2023-01-11T05:37:42.301Z,1006.80
2023-01-11T05:38:42.288Z,1006.76
2023-01-11T05:39:42.278Z,1006.78
2023-01-11T05:40:42.268Z,1006.75
2023-01-11T05:41:42.257Z,1006.64
2023-01-11T05:42:42.245Z,1006.72
2023-01-11T05:43:42.239Z,1006.72
2023-01-11T05:44:42.234Z,1006.74
2023-01-11T05:45:42.264Z,1006.71
2023-01-11T05:46:42.209Z,1006.76
2023-01-11T05:47:42.189Z,1006.70
2023-01-11T05:48:42.178Z,1006.72
2023-01-11T05:49:42.166Z,1006.73
2023-01-11T05:50:42.157Z,1006.73
2023-01-11T05:51:42.179Z,1006.68
2023-01-11T05:52:42.135Z,1006.72
2023-01-11T05:53:42.125Z,1006.70
2023-01-11T05:54:42.121Z,1006.72
2023-01-11T05:55:42.100Z,1006.75
2023-01-11T05:56:42.092Z,1006.76
2023-01-11T05:57:42.080Z,1006.74
2023-01-11T05:58:42.069Z,1006.70
2023-01-11T05:59:42.067Z,1006.73
2023-01-11T06:00:42.047Z,1006.74
2023-01-11T06:01:42.049Z,1006.69
2023-01-11T06:02:42.196Z,1006.63
2023-01-11T06:03:42.012Z,1006.68
2023-01-11T06:04:42.002Z,1006.64
2023-01-11T06:05:41.993Z,1006.67
2023-01-11T06:06:42.051Z,1006.64
2023-01-11T06:07:41.974Z,1006.65
2023-01-11T06:08:41.961Z,1006.68
2023-01-11T06:09:41.949Z,1006.62
2023-01-11T06:10:41.945Z,1006.63
2023-01-11T06:11:41.927Z,1006.65
2023-01-11T06:12:41.917Z,1006.61
2023-01-11T06:13:41.908Z,1006.58
2023-01-11T06:14:41.893Z,1006.59
2023-01-11T06:15:41.881Z,1006.58
2023-01-11T06:16:41.904Z,1006.59
2023-01-11T06:17:41.861Z,1006.53
2023-01-11T06:18:41.894Z,1006.48
2023-01-11T06:19:41.837Z,1006.46
2023-01-11T06:20:41.826Z,1006.45
2023-01-11T06:21:41.817Z,1006.43
2023-01-11T06:22:41.809Z,1006.42
2023-01-11T06:23:41.800Z,1006.43
2023-01-11T06:24:41.807Z,1006.38
2023-01-11T06:25:42.785Z,1006.38
2023-01-11T06:26:41.767Z,1006.33
2023-01-11T06:27:41.746Z,1006.31
2023-01-11T06:28:41.738Z,1006.32
2023-01-11T06:29:41.730Z,1006.34
2023-01-11T06:30:41.726Z,1006.35
2023-01-11T06:31:41.713Z,1006.34
2023-01-11T06:32:41.702Z,1006.30
2023-01-11T06:33:41.687Z,1006.35
2023-01-11T06:34:41.678Z,1006.33
2023-01-11T06:35:41.670Z,1006.34
2023-01-11T06:36:41.660Z,1006.32
2023-01-11T06:37:41.649Z,1006.36
2023-01-11T06:38:41.643Z,1006.40
2023-01-11T06:39:41.623Z,1006.36
2023-01-11T06:40:41.610Z,1006.37
2023-01-11T06:41:41.601Z,1006.37
2023-01-11T06:42:41.597Z,1006.39
2023-01-11T06:43:41.673Z,1006.36
2023-01-11T06:44:41.623Z,1006.36
2023-01-11T06:45:41.633Z,1006.36
2023-01-11T06:46:41.620Z,1006.34
2023-01-11T06:47:41.535Z,1006.36
2023-01-11T06:48:41.524Z,1006.33
2023-01-11T06:49:41.525Z,1006.38
2023-01-11T06:50:41.504Z,1006.35
2023-01-11T06:51:41.490Z,1006.41
2023-01-11T06:52:41.478Z,1006.41
2023-01-11T06:53:41.487Z,1006.41
2023-01-11T06:54:41.459Z,1006.40
2023-01-11T06:55:41.478Z,1006.40
2023-01-11T06:56:41.432Z,1006.44
2023-01-11T06:57:41.426Z,1006.46
2023-01-11T06:58:41.440Z,1006.46
2023-01-11T06:59:41.400Z,1006.45
2023-01-11T07:00:41.393Z,1006.41
2023-01-11T07:01:41.402Z,1006.42
2023-01-11T07:02:41.370Z,1006.42
2023-01-11T07:03:41.370Z,1006.42
2023-01-11T07:04:41.359Z,1006.41
2023-01-11T07:05:41.339Z,1006.46
2023-01-11T07:06:41.331Z,1006.44
2023-01-11T07:07:41.316Z,1006.54
2023-01-11T07:08:41.303Z,1006.56
2023-01-11T07:09:41.296Z,1006.55
2023-01-11T07:10:41.283Z,1006.61
2023-01-11T07:11:41.273Z,1006.58
2023-01-11T07:12:41.260Z,1006.61
2023-01-11T07:13:41.254Z,1006.59
2023-01-11T07:14:41.240Z,1006.64
2023-01-11T07:15:41.255Z,1006.60
2023-01-11T07:16:41.219Z,1006.56
2023-01-11T07:17:41.212Z,1006.59
2023-01-11T07:18:41.197Z,1006.55
2023-01-11T07:19:41.192Z,1006.58
2023-01-11T07:20:41.183Z,1006.61
2023-01-11T07:21:41.165Z,1006.58
2023-01-11T07:22:41.153Z,1006.53
2023-01-11T07:23:41.144Z,1006.57
2023-01-11T07:24:41.131Z,1006.54
2023-01-11T07:25:41.178Z,1006.57
2023-01-11T07:26:41.112Z,1006.60
2023-01-11T07:27:41.105Z,1006.63
2023-01-11T07:28:41.089Z,1006.59
2023-01-11T07:29:41.095Z,1006.59
2023-01-11T07:30:56.630Z,1006.58
2023-01-11T07:31:41.077Z,1006.52
2023-01-11T07:32:41.054Z,1006.57
2023-01-11T07:33:41.039Z,1006.60
2023-01-11T07:34:41.032Z,1006.59
2023-01-11T07:35:41.014Z,1006.56
2023-01-11T07:36:41.004Z,1006.56
2023-01-11T07:37:40.997Z,1006.56
2023-01-11T07:38:40.983Z,1006.58
2023-01-11T07:39:43.818Z,1006.57
2023-01-11T07:40:40.955Z,1006.61
2023-01-11T07:41:40.955Z,1006.61
2023-01-11T07:42:40.956Z,1006.56
2023-01-11T07:43:40.929Z,1006.57
2023-01-11T07:44:40.924Z,1006.58
2023-01-11T07:45:45.777Z,1006.57
2023-01-11T07:46:41.075Z,1006.57
2023-01-11T07:47:40.885Z,1006.59
2023-01-11T07:48:40.882Z,1006.56
2023-01-11T07:49:40.864Z,1006.54
2023-01-11T07:50:42.788Z,1006.55
2023-01-11T07:51:40.843Z,1006.55
2023-01-11T07:52:40.837Z,1006.59
2023-01-11T07:53:40.829Z,1006.58
2023-01-11T07:54:40.825Z,1006.53
2023-01-11T07:55:40.818Z,1006.57
2023-01-11T07:56:40.786Z,1006.52
2023-01-11T07:57:40.779Z,1006.51
2023-01-11T07:58:40.764Z,1006.57
2023-01-11T07:59:40.783Z,1006.52
2023-01-11T08:00:40.790Z,1006.53
2023-01-11T08:01:40.732Z,1006.49
2023-01-11T08:02:40.803Z,1006.50
2023-01-11T08:03:40.850Z,1006.49
2023-01-11T08:04:40.701Z,1006.51
2023-01-11T08:05:40.698Z,1006.48
2023-01-11T08:06:40.683Z,1006.53
2023-01-11T08:07:40.673Z,1006.47
2023-01-11T08:08:40.757Z,1006.53
2023-01-11T08:09:40.648Z,1006.50
2023-01-11T08:10:42.182Z,1006.48
2023-01-11T08:11:40.634Z,1006.46
2023-01-11T08:12:40.618Z,1006.50
2023-01-11T08:13:40.633Z,1006.51
2023-01-11T08:14:40.642Z,1006.48
2023-01-11T08:15:40.625Z,1006.51
2023-01-11T08:16:40.573Z,1006.48
2023-01-11T08:17:40.566Z,1006.47
2023-01-11T08:18:40.555Z,1006.46
2023-01-11T08:19:40.556Z,1006.41
2023-01-11T08:20:40.544Z,1006.45
2023-01-11T08:21:40.525Z,1006.40
2023-01-11T08:22:40.520Z,1006.41
2023-01-11T08:23:40.500Z,1006.42
2023-01-11T08:24:40.513Z,1006.42
2023-01-11T08:25:40.484Z,1006.40
2023-01-11T08:26:40.548Z,1006.43
2023-01-11T08:27:40.777Z,1006.43
2023-01-11T08:28:40.456Z,1006.40
2023-01-11T08:29:40.440Z,1006.46
2023-01-11T08:30:40.462Z,1006.41
2023-01-11T08:31:40.427Z,1006.43
2023-01-11T08:32:40.414Z,1006.44
2023-01-11T08:33:40.398Z,1006.41
2023-01-11T08:34:40.385Z,1006.39
2023-01-11T08:35:40.377Z,1006.41
2023-01-11T08:36:40.368Z,1006.39
2023-01-11T08:37:40.355Z,1006.38
2023-01-11T08:38:40.343Z,1006.40
2023-01-11T08:39:40.341Z,1006.37
2023-01-11T08:40:40.322Z,1006.40
2023-01-11T08:41:40.310Z,1006.37
2023-01-11T08:42:40.304Z,1006.40
2023-01-11T08:43:40.302Z,1006.39
2023-01-11T08:44:40.282Z,1006.38
2023-01-11T08:45:40.269Z,1006.38
2023-01-11T08:46:40.275Z,1006.36
2023-01-11T08:47:40.250Z,1006.39
2023-01-11T08:48:40.241Z,1006.38
2023-01-11T08:49:40.227Z,1006.32
2023-01-11T08:50:40.217Z,1006.37
2023-01-11T08:51:40.205Z,1006.43
2023-01-11T08:52:40.196Z,1006.41
2023-01-11T08:53:40.190Z,1006.40
2023-01-11T08:54:40.181Z,1006.40
2023-01-11T08:55:40.166Z,1006.43
2023-01-11T08:56:40.157Z,1006.42
2023-01-11T08:57:41.009Z,1006.36
2023-01-11T08:58:40.145Z,1006.36
2023-01-11T08:59:40.124Z,1006.35
2023-01-11T09:00:40.112Z,1006.33
2023-01-11T09:01:40.155Z,1006.32
2023-01-11T09:02:40.177Z,1006.32
2023-01-11T09:03:40.094Z,1006.37
2023-01-11T09:04:40.075Z,1006.34
2023-01-11T09:05:40.061Z,1006.38
2023-01-11T09:06:40.049Z,1006.37
2023-01-11T09:07:40.081Z,1006.32
2023-01-11T09:08:40.032Z,1006.36
2023-01-11T09:09:40.031Z,1006.34
2023-01-11T09:10:40.015Z,1006.38
2023-01-11T09:11:39.996Z,1006.31
2023-01-11T09:12:39.986Z,1006.32
2023-01-11T09:13:39.984Z,1006.33
2023-01-11T09:14:39.968Z,1006.30
2023-01-11T09:15:40.028Z,1006.33
2023-01-11T09:16:39.940Z,1006.34
2023-01-11T09:17:39.935Z,1006.26
2023-01-11T09:18:39.926Z,1006.31
2023-01-11T09:19:39.906Z,1006.27
2023-01-11T09:20:39.899Z,1006.27
2023-01-11T09:21:39.891Z,1006.29
2023-01-11T09:22:39.879Z,1006.28
2023-01-11T09:23:39.867Z,1006.29
2023-01-11T09:24:39.861Z,1006.27
2023-01-11T09:25:39.851Z,1006.32
2023-01-11T09:26:39.847Z,1006.26
2023-01-11T09:27:39.859Z,1006.25
2023-01-11T09:28:39.816Z,1006.27
2023-01-11T09:29:39.829Z,1006.30
2023-01-11T09:30:39.802Z,1006.29
2023-01-11T09:31:39.802Z,1006.23
2023-01-11T09:32:39.782Z,1006.31
2023-01-11T09:33:39.763Z,1006.26
2023-01-11T09:34:39.752Z,1006.25
2023-01-11T09:35:39.737Z,1006.26
2023-01-11T09:36:39.730Z,1006.28
2023-01-11T09:37:39.725Z,1006.27
2023-01-11T09:38:39.711Z,1006.29
2023-01-11T09:39:39.699Z,1006.27
2023-01-11T09:40:39.689Z,1006.25
2023-01-11T09:41:39.675Z,1006.24
2023-01-11T09:42:39.787Z,1006.25
2023-01-11T09:43:39.660Z,1006.26
2023-01-11T09:44:39.646Z,1006.18
2023-01-11T09:45:39.635Z,1006.14
2023-01-11T09:46:39.680Z,1006.18
2023-01-11T09:47:39.613Z,1006.16
2023-01-11T09:48:39.632Z,1006.19
2023-01-11T09:49:39.600Z,1006.14
2023-01-11T09:50:39.579Z,1006.11
2023-01-11T09:51:39.622Z,1006.06
2023-01-11T09:52:39.573Z,1006.08
2023-01-11T09:53:39.587Z,1006.10
2023-01-11T09:54:39.539Z,1006.11
2023-01-11T09:55:39.534Z,1006.11
2023-01-11T09:56:39.525Z,1006.11
2023-01-11T09:57:39.573Z,1006.11
2023-01-11T09:58:39.498Z,1006.11
2023-01-11T09:59:39.491Z,1006.09
2023-01-11T10:00:39.527Z,1006.13
2023-01-11T10:01:39.474Z,1006.08
2023-01-11T10:02:39.455Z,1006.12
2023-01-11T10:03:39.443Z,1006.07
2023-01-11T10:04:39.457Z,1006.10
2023-01-11T10:05:39.425Z,1006.04
2023-01-11T10:06:39.415Z,1006.06
2023-01-11T10:07:39.402Z,1006.01
2023-01-11T10:18:25.374Z,1005.88
2023-01-11T10:18:29.803Z,1005.88
2023-01-11T10:18:31.222Z,1005.91
2023-01-11T10:18:43.436Z,1005.91
2023-01-11T10:18:58.885Z,1005.84
2023-01-11T10:19:41.310Z,1005.84
2023-01-11T10:20:39.278Z,1005.82
2023-01-11T10:21:39.259Z,1005.82
2023-01-11T10:22:39.244Z,1005.72
2023-01-11T10:23:39.232Z,1005.75
2023-01-11T10:24:39.225Z,1005.73
2023-01-11T10:25:39.214Z,1005.73
2023-01-11T10:26:39.224Z,1005.69
2023-01-11T10:27:39.252Z,1005.63
2023-01-11T10:28:39.180Z,1005.68
2023-01-11T10:29:39.185Z,1005.68
2023-01-11T10:30:41.598Z,1005.66
2023-01-11T10:31:39.186Z,1005.67
2023-01-11T10:32:39.140Z,1005.63
2023-01-11T10:33:39.128Z,1005.63
2023-01-11T10:34:39.119Z,1005.61
2023-01-11T10:35:39.108Z,1005.65
2023-01-11T10:36:39.099Z,1005.62
2023-01-11T10:37:39.089Z,1005.63
2023-01-11T10:38:39.083Z,1005.59
2023-01-11T10:39:39.067Z,1005.62
2023-01-11T10:40:39.066Z,1005.62
2023-01-11T10:41:39.148Z,1005.63
2023-01-11T10:42:39.037Z,1005.60
2023-01-11T10:43:39.025Z,1005.63
2023-01-11T10:44:39.017Z,1005.63
2023-01-11T10:45:39.045Z,1005.63
2023-01-11T10:46:38.994Z,1005.60
2023-01-11T10:47:38.984Z,1005.61
2023-01-11T10:48:38.993Z,1005.61
2023-01-11T10:49:38.963Z,1005.62
2023-01-11T10:50:38.952Z,1005.66
2023-01-11T10:51:38.948Z,1005.67
2023-01-11T10:52:38.931Z,1005.68
2023-01-11T10:53:38.933Z,1005.65
2023-01-11T10:54:38.913Z,1005.62
2023-01-11T10:55:38.910Z,1005.62
2023-01-11T10:56:42.532Z,1005.61
2023-01-11T10:57:38.881Z,1005.59
2023-01-11T10:58:38.873Z,1005.56
2023-01-11T10:59:38.874Z,1005.56
2023-01-11T11:00:38.869Z,1005.55
2023-01-11T11:01:38.864Z,1005.53
2023-01-11T11:02:38.836Z,1005.47
2023-01-11T11:03:38.821Z,1005.49
2023-01-11T11:04:38.815Z,1005.46
2023-01-11T11:05:38.800Z,1005.44
2023-01-11T11:06:38.796Z,1005.44
2023-01-11T11:07:38.782Z,1005.41
2023-01-11T11:08:38.773Z,1005.37
2023-01-11T11:09:38.761Z,1005.36
2023-01-11T11:10:38.752Z,1005.32
2023-01-11T11:11:38.754Z,1005.32
2023-01-11T11:12:38.730Z,1005.33
2023-01-11T11:13:38.719Z,1005.30
2023-01-11T11:14:38.708Z,1005.31
2023-01-11T11:15:38.708Z,1005.31
2023-01-11T11:16:38.686Z,1005.30
2023-01-11T11:17:38.684Z,1005.26
2023-01-11T11:18:38.676Z,1005.26
2023-01-11T11:19:38.840Z,1005.22
2023-01-11T11:20:38.696Z,1005.22
2023-01-11T11:21:38.640Z,1005.20
2023-01-11T11:22:38.632Z,1005.18
2023-01-11T11:23:38.620Z,1005.14
2023-01-11T11:24:38.606Z,1005.18
2023-01-11T11:25:38.601Z,1005.16
2023-01-11T11:26:38.632Z,1005.17
2023-01-11T11:27:38.578Z,1005.16
2023-01-11T11:28:38.593Z,1005.17
2023-01-11T11:29:38.560Z,1005.20
2023-01-11T11:30:38.564Z,1005.16
2023-01-11T11:31:38.628Z,1005.15
2023-01-11T11:32:38.533Z,1005.14
2023-01-11T11:33:38.519Z,1005.11
2023-01-11T11:34:38.509Z,1005.12
2023-01-11T11:35:38.496Z,1005.10
2023-01-11T11:36:38.495Z,1005.07
2023-01-11T11:37:38.480Z,1005.06
2023-01-11T11:38:38.496Z,1005.09
2023-01-11T11:39:38.458Z,1005.11
2023-01-11T11:40:38.443Z,1005.03
2023-01-11T11:41:38.451Z,1005.06
2023-01-11T11:42:38.425Z,1005.07
2023-01-11T11:43:38.421Z,1005.05
2023-01-11T11:44:38.414Z,1005.08
2023-01-11T11:45:38.419Z,1005.07
2023-01-11T11:46:38.391Z,1005.02
2023-01-11T11:47:38.396Z,1005.02
2023-01-11T11:48:38.368Z,1005.06
2023-01-11T11:49:38.370Z,1005.09
2023-01-11T11:50:45.860Z,1005.06
2023-01-11T11:51:38.346Z,1005.04
2023-01-11T11:52:38.339Z,1005.05
2023-01-11T11:53:38.327Z,1005.05
2023-01-11T11:54:38.308Z,1005.02
2023-01-11T11:55:38.300Z,1004.99
2023-01-11T11:56:38.286Z,1005.02
2023-01-11T11:57:38.282Z,1004.99
2023-01-11T11:58:38.269Z,1004.99
2023-01-11T11:59:38.258Z,1004.97
2023-01-11T12:00:38.252Z,1004.94
2023-01-11T12:01:38.241Z,1004.92
2023-01-11T12:02:38.236Z,1004.91
2023-01-11T12:03:38.219Z,1004.90
2023-01-11T12:04:38.221Z,1004.85
2023-01-11T12:05:38.202Z,1004.85
2023-01-11T12:06:38.195Z,1004.86
2023-01-11T12:07:49.742Z,1004.86
2023-01-11T12:08:38.170Z,1004.78
2023-01-11T12:09:38.162Z,1004.81
2023-01-11T12:10:38.150Z,1004.75
2023-01-11T12:11:38.141Z,1004.77